Time;durP1;ratioP1;P1;durP2;ratioP2;P2;SDS_P1;SDS_P2;PMS_P1;PMS_P2;Temp;Humidity;BMP_temperature;BMP_pressure;BME280_temperature;BME280_humidity;BME280_pressure;Samples;Min_cycle;Max_cycle;Signal;HPM_P1;HPM_P2
2022/05/28 00:02:03;;;;;;;10.50;3.07;;;;;;;;;;5048481;28;20181;-73
2022/05/28 00:04:29;;;;;;;13.87;3.10;;;;;;;;;;5052463;28;20264;-73
2022/05/28 00:06:54;;;;;;;6.70;2.43;;;;;;;;;;5053273;28;20256;-73
2022/05/28 00:09:20;;;;;;;15.00;3.37;;;;;;;;;;5053202;28;20166;-73
2022/05/28 00:11:45;;;;;;;13.20;3.57;;;;;;;;;;5052496;28;20181;-73
2022/05/28 00:14:10;;;;;;;12.33;3.07;;;;;;;;;;5051639;28;20194;-73
2022/05/28 00:16:36;;;;;;;10.80;2.27;;;;;;;;;;5031449;28;20588;-73
2022/05/28 00:19:02;;;;;;;7.57;3.23;;;;;;;;;;5049731;28;20174;-73
2022/05/28 00:21:27;;;;;;;8.00;2.13;;;;;;;;;;5049604;28;20217;-73
2022/05/28 00:23:52;;;;;;;10.90;2.50;;;;;;;;;;5053134;28;20182;-72
2022/05/28 00:26:18;;;;;;;6.67;2.13;;;;;;;;;;5037911;28;20230;-72
2022/05/28 00:28:43;;;;;;;11.70;3.10;;;;;;;;;;5052076;28;20177;-72
2022/05/28 00:31:08;;;;;;;7.27;2.50;;;;;;;;;;5051736;28;20180;-72
2022/05/28 00:33:34;;;;;;;7.47;2.00;;;;;;;;;;5051458;28;20197;-72
2022/05/28 00:36:00;;;;;;;11.80;2.50;;;;;;;;;;5052531;28;20174;-72
2022/05/28 00:38:26;;;;;;;10.10;1.93;;;;;;;;;;5050799;28;20181;-72
2022/05/28 00:40:53;;;;;;;18.73;3.83;;;;;;;;;;5049576;28;20198;-74
2022/05/28 00:43:19;;;;;;;10.80;3.53;;;;;;;;;;5052552;28;20212;-73
2022/05/28 00:45:46;;;;;;;8.37;2.20;;;;;;;;;;5053153;28;20632;-73
2022/05/28 00:48:12;;;;;;;6.07;2.07;;;;;;;;;;5053110;28;20173;-72
2022/05/28 00:50:38;;;;;;;8.00;2.67;;;;;;;;;;5052460;28;20239;-73
2022/05/28 00:53:04;;;;;;;10.27;2.23;;;;;;;;;;5052641;28;20205;-73
2022/05/28 00:55:33;;;;;;;8.40;1.87;;;;;;;;;;5052578;28;20197;-73
2022/05/28 00:57:59;;;;;;;10.83;3.37;;;;;;;;;;5052433;28;20242;-74
2022/05/28 01:00:24;;;;;;;8.53;2.03;;;;;;;;;;5037840;28;20727;-73
2022/05/28 01:02:55;;;;;;;8.43;1.83;;;;;;;;;;5053315;28;20196;-74
2022/05/28 01:05:20;;;;;;;7.50;2.40;;;;;;;;;;5053842;28;20170;-73
2022/05/28 01:07:58;;;;;;;5.23;1.90;;;;;;;;;;5036137;28;20185;-73
2022/05/28 01:10:42;;;;;;;7.83;2.10;;;;;;;;;;5051251;28;20457;-73
2022/05/28 01:13:21;;;;;;;10.60;2.87;;;;;;;;;;5052084;28;20198;-73
2022/05/28 01:15:49;;;;;;;11.10;2.47;;;;;;;;;;5050623;28;20177;-73
2022/05/28 01:18:26;;;;;;;8.17;2.00;;;;;;;;;;5050887;28;20692;-72
2022/05/28 01:20:54;;;;;;;7.10;1.80;;;;;;;;;;5050692;28;20248;-72
2022/05/28 01:23:25;;;;;;;12.43;3.30;;;;;;;;;;5050761;28;20693;-73
2022/05/28 01:25:56;;;;;;;13.33;2.47;;;;;;;;;;5044339;28;20248;-72
2022/05/28 01:28:24;;;;;;;11.03;2.43;;;;;;;;;;5050751;28;20930;-75
2022/05/28 01:30:49;;;;;;;9.97;2.70;;;;;;;;;;5043009;28;20178;-72
2022/05/28 01:33:15;;;;;;;9.33;2.20;;;;;;;;;;5041530;28;20736;-73
2022/05/28 01:35:42;;;;;;;8.27;2.13;;;;;;;;;;5051850;28;20709;-72
2022/05/28 01:38:09;;;;;;;8.17;2.03;;;;;;;;;;5050553;28;20635;-74
2022/05/28 01:40:34;;;;;;;7.93;2.23;;;;;;;;;;5048136;28;20213;-73
2022/05/28 01:43:02;;;;;;;13.33;2.67;;;;;;;;;;5051196;28;20195;-74
2022/05/28 01:45:29;;;;;;;11.50;2.80;;;;;;;;;;5051635;28;20185;-74
2022/05/28 01:47:56;;;;;;;12.13;2.77;;;;;;;;;;5051230;28;20173;-73
2022/05/28 01:50:22;;;;;;;8.27;2.40;;;;;;;;;;5050282;28;20268;-73
2022/05/28 01:52:48;;;;;;;9.20;2.77;;;;;;;;;;5051704;28;20205;-73
2022/05/28 01:55:14;;;;;;;7.97;2.20;;;;;;;;;;5045708;28;20533;-73
2022/05/28 01:57:39;;;;;;;8.20;2.50;;;;;;;;;;5049266;28;20189;-73
2022/05/28 02:00:04;;;;;;;12.70;2.30;;;;;;;;;;5049757;28;20213;-75
2022/05/28 02:02:30;;;;;;;9.93;3.40;;;;;;;;;;5050631;28;20194;-73
2022/05/28 02:04:55;;;;;;;10.00;2.63;;;;;;;;;;5051107;28;20211;-74
2022/05/28 02:07:20;;;;;;;10.27;3.20;;;;;;;;;;5051032;28;20255;-74
2022/05/28 02:09:49;;;;;;;8.80;2.50;;;;;;;;;;5049701;28;20189;-73
2022/05/28 02:12:20;;;;;;;11.33;2.97;;;;;;;;;;5047632;28;20174;-74
2022/05/28 02:14:58;;;;;;;11.20;3.10;;;;;;;;;;5049637;28;20174;-73
2022/05/28 02:17:42;;;;;;;12.33;3.87;;;;;;;;;;5029588;28;20239;-73
2022/05/28 02:20:14;;;;;;;9.17;3.50;;;;;;;;;;5044511;28;20198;-74
2022/05/28 02:22:47;;;;;;;13.13;2.60;;;;;;;;;;5051337;28;20685;-73
2022/05/28 02:25:16;;;;;;;17.20;3.13;;;;;;;;;;5050449;28;20174;-74
2022/05/28 02:27:42;;;;;;;10.43;3.10;;;;;;;;;;5046392;28;20190;-74
2022/05/28 02:30:08;;;;;;;10.47;3.20;;;;;;;;;;5033234;28;20648;-74
2022/05/28 02:32:33;;;;;;;15.73;3.37;;;;;;;;;;5049521;28;20374;-73
2022/05/28 02:34:58;;;;;;;7.43;2.53;;;;;;;;;;5049990;28;20703;-73
2022/05/28 02:37:26;;;;;;;13.30;3.10;;;;;;;;;;5050537;28;20253;-72
2022/05/28 02:39:51;;;;;;;11.37;3.10;;;;;;;;;;5048523;28;20189;-74
2022/05/28 02:42:16;;;;;;;12.30;2.87;;;;;;;;;;5051528;28;20158;-74
2022/05/28 02:44:41;;;;;;;16.27;3.73;;;;;;;;;;5050550;28;20464;-74
2022/05/28 02:47:07;;;;;;;13.23;3.00;;;;;;;;;;5055888;28;20632;-74
2022/05/28 02:49:32;;;;;;;12.40;3.20;;;;;;;;;;5053680;28;20184;-73
2022/05/28 02:51:59;;;;;;;9.83;2.77;;;;;;;;;;5054900;28;20231;-72
2022/05/28 02:54:24;;;;;;;13.20;3.30;;;;;;;;;;5054022;28;20260;-72
2022/05/28 02:56:50;;;;;;;22.23;4.93;;;;;;;;;;5047285;28;20177;-74
2022/05/28 02:59:15;;;;;;;11.07;2.73;;;;;;;;;;5054319;28;20547;-76
2022/05/28 03:01:40;;;;;;;14.20;3.47;;;;;;;;;;5049932;28;20694;-75
2022/05/28 03:04:06;;;;;;;39.00;4.33;;;;;;;;;;5048671;28;20277;-75
2022/05/28 03:06:32;;;;;;;9.70;3.00;;;;;;;;;;5051184;28;20178;-73
2022/05/28 03:08:57;;;;;;;12.73;3.20;;;;;;;;;;5047237;28;20197;-73
2022/05/28 03:11:22;;;;;;;14.63;3.60;;;;;;;;;;5053501;28;20556;-73
2022/05/28 03:13:47;;;;;;;10.90;3.23;;;;;;;;;;5048305;28;20216;-73
2022/05/28 03:16:12;;;;;;;14.73;4.10;;;;;;;;;;5053688;28;20228;-73
2022/05/28 03:18:38;;;;;;;13.90;3.50;;;;;;;;;;5052095;28;20189;-73
2022/05/28 03:21:04;;;;;;;15.87;3.70;;;;;;;;;;5051037;28;20202;-73
2022/05/28 03:23:29;;;;;;;11.53;2.63;;;;;;;;;;5052346;28;20201;-73
2022/05/28 03:25:54;;;;;;;13.33;2.43;;;;;;;;;;5052699;28;20643;-74
2022/05/28 03:28:19;;;;;;;14.13;3.57;;;;;;;;;;5053109;28;20227;-72
2022/05/28 03:30:45;;;;;;;10.87;2.73;;;;;;;;;;5053504;28;20188;-74
2022/05/28 03:33:10;;;;;;;12.63;2.47;;;;;;;;;;5052432;28;20293;-73
2022/05/28 03:35:37;;;;;;;9.10;2.70;;;;;;;;;;5052056;28;20659;-74
2022/05/28 03:38:03;;;;;;;11.03;2.60;;;;;;;;;;5036169;28;20178;-72
2022/05/28 03:40:28;;;;;;;10.03;2.70;;;;;;;;;;5052748;28;20212;-74
2022/05/28 03:42:53;;;;;;;7.33;1.90;;;;;;;;;;5053092;28;20213;-72
2022/05/28 03:45:18;;;;;;;13.53;2.90;;;;;;;;;;5052547;28;20205;-74
2022/05/28 03:47:43;;;;;;;11.93;2.63;;;;;;;;;;5034184;28;20185;-73
2022/05/28 03:50:09;;;;;;;8.17;2.33;;;;;;;;;;5052997;28;20173;-74
2022/05/28 03:52:34;;;;;;;13.67;3.70;;;;;;;;;;5052545;28;20209;-73
2022/05/28 03:54:59;;;;;;;7.97;1.73;;;;;;;;;;5051875;28;20209;-73
2022/05/28 03:57:29;;;;;;;8.53;1.63;;;;;;;;;;5054004;28;20199;-73
2022/05/28 03:59:54;;;;;;;10.70;2.13;;;;;;;;;;5050669;28;20190;-74
2022/05/28 04:02:20;;;;;;;4.90;2.13;;;;;;;;;;5049524;28;20544;-74
2022/05/28 04:04:45;;;;;;;7.30;2.53;;;;;;;;;;5051418;28;20201;-74
2022/05/28 04:07:11;;;;;;;8.40;1.90;;;;;;;;;;5052936;28;20212;-73
2022/05/28 04:09:36;;;;;;;9.43;1.60;;;;;;;;;;5051730;28;20223;-73
2022/05/28 04:12:01;;;;;;;6.93;1.40;;;;;;;;;;5040285;28;20683;-74
2022/05/28 04:14:27;;;;;;;10.33;1.73;;;;;;;;;;5044953;28;20274;-74
2022/05/28 04:16:52;;;;;;;8.87;1.90;;;;;;;;;;5050497;28;20178;-74
2022/05/28 04:19:17;;;;;;;5.63;1.40;;;;;;;;;;5051416;28;20177;-72
2022/05/28 04:21:42;;;;;;;7.27;1.63;;;;;;;;;;5047839;28;20225;-73
2022/05/28 04:24:07;;;;;;;3.53;1.30;;;;;;;;;;5051099;28;20251;-74
2022/05/28 04:26:33;;;;;;;6.07;1.43;;;;;;;;;;5048119;28;20170;-73
2022/05/28 04:28:58;;;;;;;6.60;1.03;;;;;;;;;;5051098;28;20282;-74
2022/05/28 04:31:24;;;;;;;5.47;0.97;;;;;;;;;;5051801;28;20185;-73
2022/05/28 04:33:49;;;;;;;9.20;1.30;;;;;;;;;;5048957;28;20574;-73
2022/05/28 04:36:14;;;;;;;3.43;1.63;;;;;;;;;;5050046;28;20245;-73
2022/05/28 04:38:39;;;;;;;5.50;1.23;;;;;;;;;;5050416;28;20170;-73
2022/05/28 04:41:05;;;;;;;3.75;1.30;;;;;;;;;;5048900;28;20193;-73
2022/05/28 04:43:30;;;;;;;3.15;1.30;;;;;;;;;;5052073;28;20264;-74
2022/05/28 04:45:55;;;;;;;6.65;1.45;;;;;;;;;;5052063;28;20178;-73
2022/05/28 04:48:20;;;;;;;5.03;1.42;;;;;;;;;;5051987;28;20169;-73
2022/05/28 04:50:45;;;;;;;3.22;0.98;;;;;;;;;;5051096;28;20194;-73
2022/05/28 04:53:11;;;;;;;5.72;1.38;;;;;;;;;;5049164;28;20224;-75
2022/05/28 04:55:37;;;;;;;5.70;1.90;;;;;;;;;;5051433;28;20680;-75
2022/05/28 04:58:03;;;;;;;3.67;1.92;;;;;;;;;;5049676;28;20551;-74
2022/05/28 05:00:28;;;;;;;5.85;1.20;;;;;;;;;;5032221;28;20215;-71
2022/05/28 05:02:53;;;;;;;6.55;1.58;;;;;;;;;;5051788;28;20194;-74
2022/05/28 05:05:19;;;;;;;5.75;1.40;;;;;;;;;;5050341;28;20208;-73
2022/05/28 05:07:44;;;;;;;6.65;1.48;;;;;;;;;;5050061;28;20185;-72
2022/05/28 05:10:09;;;;;;;5.00;1.50;;;;;;;;;;5050742;28;20178;-74
2022/05/28 05:12:35;;;;;;;3.85;1.17;;;;;;;;;;5049142;28;20201;-73
2022/05/28 05:15:00;;;;;;;7.35;1.33;;;;;;;;;;5031171;28;20643;-74
2022/05/28 05:17:25;;;;;;;4.55;1.20;;;;;;;;;;5050041;28;20184;-74
2022/05/28 05:19:51;;;;;;;5.25;1.20;;;;;;;;;;5049912;28;20178;-72
2022/05/28 05:22:16;;;;;;;7.28;1.30;;;;;;;;;;5051408;28;20174;-72
2022/05/28 05:24:41;;;;;;;8.77;1.35;;;;;;;;;;5048479;28;20177;-74
2022/05/28 05:27:08;;;;;;;7.47;1.45;;;;;;;;;;5050815;28;20620;-74
2022/05/28 05:29:33;;;;;;;4.75;1.33;;;;;;;;;;5050957;28;20174;-73
2022/05/28 05:31:58;;;;;;;8.33;1.57;;;;;;;;;;5038110;28;20503;-72
2022/05/28 05:34:23;;;;;;;10.50;2.33;;;;;;;;;;5050723;28;21005;-72
2022/05/28 05:36:49;;;;;;;5.75;1.67;;;;;;;;;;5050213;28;20252;-73
2022/05/28 05:39:14;;;;;;;4.88;1.25;;;;;;;;;;5050309;28;20260;-71
2022/05/28 05:41:42;;;;;;;5.57;1.30;;;;;;;;;;5048539;28;20205;-73
2022/05/28 05:44:08;;;;;;;6.70;1.30;;;;;;;;;;5049167;28;20671;-71
2022/05/28 05:46:33;;;;;;;5.22;1.50;;;;;;;;;;5037313;28;20181;-73
2022/05/28 05:48:58;;;;;;;7.32;1.42;;;;;;;;;;5049930;28;20656;-73
2022/05/28 05:51:24;;;;;;;6.97;1.80;;;;;;;;;;5050382;28;20186;-73
2022/05/28 05:53:49;;;;;;;7.20;1.58;;;;;;;;;;5050419;28;20216;-73
2022/05/28 05:56:14;;;;;;;4.50;1.17;;;;;;;;;;5037117;28;20188;-72
2022/05/28 05:58:39;;;;;;;7.22;1.52;;;;;;;;;;5040221;28;20193;-72
2022/05/28 06:01:05;;;;;;;4.13;1.00;;;;;;;;;;5049612;28;20201;-73
2022/05/28 06:03:30;;;;;;;7.55;1.20;;;;;;;;;;5049821;28;20201;-73
2022/05/28 06:05:59;;;;;;;6.20;1.42;;;;;;;;;;5050536;28;20248;-73
2022/05/28 06:08:24;;;;;;;5.68;1.30;;;;;;;;;;5050706;28;20165;-72
2022/05/28 06:10:50;;;;;;;8.55;1.65;;;;;;;;;;5049989;28;20801;-72
2022/05/28 06:13:15;;;;;;;6.50;1.40;;;;;;;;;;5047763;28;20216;-72
2022/05/28 06:15:40;;;;;;;7.20;1.43;;;;;;;;;;5049541;28;20192;-72
2022/05/28 06:18:05;;;;;;;4.50;0.98;;;;;;;;;;5049783;28;20928;-73
2022/05/28 06:20:31;;;;;;;12.15;3.72;;;;;;;;;;5050544;28;20697;-73
2022/05/28 06:22:56;;;;;;;3.33;1.70;;;;;;;;;;5050233;28;20459;-72
2022/05/28 06:25:21;;;;;;;4.77;1.00;;;;;;;;;;5046762;28;20211;-73
2022/05/28 06:27:46;;;;;;;5.13;1.60;;;;;;;;;;5053377;28;20422;-71
2022/05/28 06:30:12;;;;;;;7.63;1.40;;;;;;;;;;5051530;28;20426;-71
2022/05/28 06:32:37;;;;;;;4.35;1.38;;;;;;;;;;5054178;28;20801;-73
2022/05/28 06:35:02;;;;;;;5.00;1.27;;;;;;;;;;5048719;28;20181;-73
2022/05/28 06:37:28;;;;;;;2.00;0.90;;;;;;;;;;5041890;28;20212;-70
2022/05/28 06:39:53;;;;;;;4.63;1.10;;;;;;;;;;5046953;28;20200;-72
2022/05/28 06:42:18;;;;;;;6.90;1.13;;;;;;;;;;5054099;28;20256;-72
2022/05/28 06:44:43;;;;;;;4.97;1.53;;;;;;;;;;5054157;28;20419;-72
2022/05/28 06:47:08;;;;;;;6.97;1.20;;;;;;;;;;5054481;28;20859;-73
2022/05/28 06:49:33;;;;;;;4.63;1.77;;;;;;;;;;5053779;28;20402;-73
2022/05/28 06:51:59;;;;;;;6.68;1.15;;;;;;;;;;5053624;28;20947;-71
2022/05/28 06:54:24;;;;;;;7.55;1.17;;;;;;;;;;5053864;28;20213;-72
2022/05/28 06:56:49;;;;;;;3.75;1.17;;;;;;;;;;5050482;28;20177;-72
2022/05/28 06:59:14;;;;;;;6.82;1.50;;;;;;;;;;5052343;28;20593;-72
2022/05/28 07:01:40;;;;;;;7.33;1.40;;;;;;;;;;5053114;28;20205;-71
2022/05/28 07:04:05;;;;;;;6.40;1.70;;;;;;;;;;5030631;28;20449;-72
2022/05/28 07:06:32;;;;;;;6.47;1.42;;;;;;;;;;5053883;28;20178;-71
2022/05/28 07:08:57;;;;;;;6.78;1.60;;;;;;;;;;5053688;28;20177;-73
2022/05/28 07:11:22;;;;;;;6.40;1.40;;;;;;;;;;5052497;28;20178;-73
2022/05/28 07:13:47;;;;;;;1.97;0.80;;;;;;;;;;5051597;28;20582;-73
2022/05/28 07:16:12;;;;;;;2.77;0.90;;;;;;;;;;5053392;28;20509;-73
2022/05/28 07:18:38;;;;;;;4.43;1.17;;;;;;;;;;5051670;28;20440;-71
2022/05/28 07:21:04;;;;;;;5.53;0.98;;;;;;;;;;5053248;28;20292;-72
2022/05/28 07:23:29;;;;;;;5.70;0.90;;;;;;;;;;5052549;28;20202;-70
2022/05/28 07:26:09;;;;;;;4.65;1.23;;;;;;;;;;5051835;28;20213;-73
2022/05/28 07:28:36;;;;;;;4.80;1.15;;;;;;;;;;5052304;28;20173;-72
2022/05/28 07:31:03;;;;;;;5.28;1.30;;;;;;;;;;5052798;28;20236;-73
2022/05/28 07:33:29;;;;;;;4.53;1.50;;;;;;;;;;5051218;28;20674;-72
2022/05/28 07:35:55;;;;;;;5.03;1.17;;;;;;;;;;5053291;28;20204;-72
2022/05/28 07:38:21;;;;;;;6.50;1.30;;;;;;;;;;5052393;28;20173;-71
2022/05/28 07:40:47;;;;;;;3.55;1.02;;;;;;;;;;5052866;28;20204;-71
2022/05/28 07:43:12;;;;;;;5.65;1.33;;;;;;;;;;5044752;28;20190;-70
2022/05/28 07:45:42;;;;;;;5.30;1.10;;;;;;;;;;5052649;28;20440;-71
2022/05/28 07:48:07;;;;;;;3.75;1.10;;;;;;;;;;5042876;28;20173;-72
2022/05/28 07:50:33;;;;;;;6.78;1.20;;;;;;;;;;5052535;28;20260;-71
2022/05/28 07:52:59;;;;;;;6.32;1.55;;;;;;;;;;5052271;28;20225;-71
2022/05/28 07:55:25;;;;;;;4.28;1.40;;;;;;;;;;5052794;28;20173;-72
2022/05/28 07:57:50;;;;;;;6.05;1.60;;;;;;;;;;5051072;28;20177;-71
2022/05/28 08:00:16;;;;;;;4.67;1.20;;;;;;;;;;5052025;28;20205;-71
2022/05/28 08:02:41;;;;;;;3.72;1.27;;;;;;;;;;5050986;28;20862;-73
2022/05/28 08:05:07;;;;;;;6.73;1.77;;;;;;;;;;5052542;28;20173;-72
2022/05/28 08:07:32;;;;;;;7.35;2.13;;;;;;;;;;5052813;28;20509;-72
2022/05/28 08:09:58;;;;;;;5.73;1.80;;;;;;;;;;5051891;28;20204;-72
2022/05/28 08:12:23;;;;;;;12.05;2.42;;;;;;;;;;5050703;28;20430;-72
2022/05/28 08:14:48;;;;;;;2.00;0.80;;;;;;;;;;5050767;28;20186;-71
2022/05/28 08:17:15;;;;;;;4.22;1.33;;;;;;;;;;5049122;28;20419;-71
2022/05/28 08:19:41;;;;;;;4.80;1.02;;;;;;;;;;5047954;28;20807;-72
2022/05/28 08:24:49;;;;;;;6.80;1.67;;;;;;;;;;5050565;28;20716;-72
2022/05/28 08:27:14;;;;;;;5.47;1.30;;;;;;;;;;5052278;28;20182;-72
2022/05/28 08:29:40;;;;;;;5.93;1.83;;;;;;;;;;5051299;28;20415;-71
2022/05/28 08:32:05;;;;;;;5.77;1.40;;;;;;;;;;5051918;28;20576;-71
2022/05/28 08:34:30;;;;;;;7.57;1.48;;;;;;;;;;5050258;28;20446;-72
2022/05/28 08:36:56;;;;;;;2.80;1.23;;;;;;;;;;5052483;28;20177;-72
2022/05/28 08:39:21;;;;;;;6.50;1.00;;;;;;;;;;5050705;28;20548;-72
2022/05/28 08:41:52;;;;;;;5.17;1.33;;;;;;;;;;5050652;28;20213;-72
2022/05/28 08:44:20;;;;;;;5.85;1.25;;;;;;;;;;5052060;28;20427;-72
2022/05/28 08:46:50;;;;;;;4.82;0.85;;;;;;;;;;5041475;28;20648;-72
2022/05/28 08:49:15;;;;;;;4.72;1.88;;;;;;;;;;5051978;28;20177;-72
2022/05/28 08:51:52;;;;;;;3.20;0.95;;;;;;;;;;5051792;28;20259;-72
2022/05/28 08:54:34;;;;;;;6.63;1.10;;;;;;;;;;5051927;28;20736;-72
2022/05/28 08:57:03;;;;;;;9.95;2.05;;;;;;;;;;5049820;28;20185;-72
2022/05/28 08:59:31;;;;;;;7.07;1.58;;;;;;;;;;5050953;28;20181;-72
2022/05/28 09:01:57;;;;;;;5.85;1.98;;;;;;;;;;5052353;28;20197;-72
2022/05/28 09:04:29;;;;;;;7.32;1.70;;;;;;;;;;5051925;28;20273;-71
2022/05/28 09:06:56;;;;;;;7.20;2.00;;;;;;;;;;5050869;28;20181;-71
2022/05/28 09:09:38;;;;;;;6.93;1.60;;;;;;;;;;5049752;28;20181;-72
2022/05/28 09:12:04;;;;;;;8.80;1.70;;;;;;;;;;5048444;28;20589;-71
2022/05/28 09:14:31;;;;;;;6.22;1.60;;;;;;;;;;5050905;28;20679;-70
2022/05/28 09:17:17;;;;;;;9.38;2.15;;;;;;;;;;5033854;28;20185;-70
2022/05/28 09:19:44;;;;;;;3.72;1.20;;;;;;;;;;5048037;28;20197;-71
2022/05/28 09:22:09;;;;;;;7.97;2.10;;;;;;;;;;5041151;28;20376;-71
2022/05/28 09:24:35;;;;;;;7.55;1.75;;;;;;;;;;5050318;28;20181;-71
2022/05/28 09:27:06;;;;;;;5.65;1.23;;;;;;;;;;5046170;28;20219;-72
2022/05/28 09:29:37;;;;;;;5.28;1.40;;;;;;;;;;5041177;28;20169;-72
2022/05/28 09:32:08;;;;;;;6.40;1.83;;;;;;;;;;5050972;28;20641;-72
2022/05/28 09:34:44;;;;;;;9.80;1.50;;;;;;;;;;5050547;28;20199;-71
2022/05/28 09:37:10;;;;;;;7.60;1.50;;;;;;;;;;5045626;28;20196;-71
2022/05/28 09:39:40;;;;;;;5.40;1.42;;;;;;;;;;5047232;28;20189;-71
2022/05/28 09:42:17;;;;;;;3.05;1.27;;;;;;;;;;5050695;28;20694;-71
2022/05/28 09:44:50;;;;;;;4.72;1.63;;;;;;;;;;5050079;28;20188;-71
2022/05/28 09:47:18;;;;;;;7.80;1.92;;;;;;;;;;5047824;28;20161;-71
2022/05/28 09:49:46;;;;;;;5.43;1.30;;;;;;;;;;5049707;28;20181;-71
2022/05/28 09:52:12;;;;;;;4.32;1.35;;;;;;;;;;5051657;28;20302;-71
2022/05/28 09:54:38;;;;;;;4.43;1.50;;;;;;;;;;5049538;28;20276;-71
2022/05/28 09:57:09;;;;;;;7.32;1.33;;;;;;;;;;5050384;28;20177;-71
2022/05/28 09:59:43;;;;;;;6.85;1.27;;;;;;;;;;5048855;28;20186;-71
2022/05/28 10:02:27;;;;;;;4.93;1.48;;;;;;;;;;5050441;28;20223;-71
2022/05/28 10:04:55;;;;;;;5.68;1.48;;;;;;;;;;5051255;28;20627;-71
2022/05/28 10:07:53;;;;;;;5.50;1.30;;;;;;;;;;5050622;28;20169;-71
2022/05/28 10:10:18;;;;;;;6.18;1.52;;;;;;;;;;4995221;28;20185;-71
2022/05/28 10:12:44;;;;;;;4.25;1.52;;;;;;;;;;5050458;28;20816;-71
2022/05/28 10:15:11;;;;;;;7.13;1.55;;;;;;;;;;5049449;28;20177;-71
2022/05/28 10:17:37;;;;;;;7.05;1.85;;;;;;;;;;5047077;28;20197;-70
2022/05/28 10:20:04;;;;;;;5.45;1.50;;;;;;;;;;5048015;28;20601;-71
2022/05/28 10:22:30;;;;;;;5.32;1.52;;;;;;;;;;5041747;28;20552;-70
2022/05/28 10:24:58;;;;;;;7.93;1.77;;;;;;;;;;5049243;28;20261;-71
2022/05/28 10:27:27;;;;;;;4.47;1.98;;;;;;;;;;5044675;28;20640;-70
2022/05/28 10:29:52;;;;;;;3.17;1.27;;;;;;;;;;5054049;28;20256;-71
2022/05/28 10:32:22;;;;;;;5.70;1.50;;;;;;;;;;5050945;28;20220;-71
2022/05/28 10:34:56;;;;;;;7.53;1.73;;;;;;;;;;5050125;28;20173;-71
2022/05/28 10:37:22;;;;;;;6.63;1.35;;;;;;;;;;5050547;28;20184;-71
2022/05/28 10:39:48;;;;;;;4.57;1.20;;;;;;;;;;5047026;28;20162;-72
2022/05/28 10:42:14;;;;;;;5.40;1.45;;;;;;;;;;5031073;28;20553;-71
2022/05/28 10:44:40;;;;;;;5.85;1.60;;;;;;;;;;5047846;28;20178;-71
2022/05/28 10:47:23;;;;;;;8.80;2.13;;;;;;;;;;5050712;28;20181;-71
2022/05/28 10:49:59;;;;;;;4.07;1.80;;;;;;;;;;5048188;28;20917;-72
2022/05/28 10:52:33;;;;;;;5.70;1.63;;;;;;;;;;5050746;28;20177;-71
2022/05/28 10:55:01;;;;;;;5.68;1.77;;;;;;;;;;5048439;28;20213;-72
2022/05/28 10:57:29;;;;;;;5.82;1.58;;;;;;;;;;5046611;28;20231;-72
2022/05/28 10:59:57;;;;;;;7.47;1.42;;;;;;;;;;5049765;28;20554;-72
2022/05/28 11:02:31;;;;;;;3.53;1.27;;;;;;;;;;5050191;28;20176;-72
2022/05/28 11:05:15;;;;;;;4.47;1.60;;;;;;;;;;5038903;28;20171;-72
2022/05/28 11:07:55;;;;;;;8.98;2.20;;;;;;;;;;5054068;28;20260;-73
2022/05/28 11:10:23;;;;;;;7.53;1.38;;;;;;;;;;5035402;28;20554;-73
2022/05/28 11:12:56;;;;;;;7.53;1.85;;;;;;;;;;5050567;28;20206;-72
2022/05/28 11:15:40;;;;;;;4.32;1.42;;;;;;;;;;5047736;28;20197;-72
2022/05/28 11:18:25;;;;;;;7.43;1.35;;;;;;;;;;5033091;28;20539;-72
2022/05/28 11:20:57;;;;;;;5.65;1.48;;;;;;;;;;5047573;28;20197;-71
2022/05/28 11:23:41;;;;;;;5.80;1.42;;;;;;;;;;5048518;28;20647;-71
2022/05/28 11:26:24;;;;;;;7.22;1.77;;;;;;;;;;5049079;28;20178;-72
2022/05/28 11:28:50;;;;;;;5.03;1.20;;;;;;;;;;5051308;28;20264;-72
2022/05/28 11:31:24;;;;;;;7.10;1.77;;;;;;;;;;5053175;28;20303;-72
2022/05/28 11:33:51;;;;;;;4.63;1.50;;;;;;;;;;5053259;28;20219;-72
2022/05/28 11:36:25;;;;;;;5.00;1.23;;;;;;;;;;5053030;28;20190;-72
2022/05/28 11:38:53;;;;;;;5.10;0.95;;;;;;;;;;5031366;28;20259;-73
2022/05/28 11:41:21;;;;;;;5.30;1.20;;;;;;;;;;5052710;28;20278;-72
2022/05/28 11:43:46;;;;;;;3.97;1.40;;;;;;;;;;5052891;28;20340;-72
2022/05/28 11:46:21;;;;;;;4.30;1.17;;;;;;;;;;5053309;28;20453;-72
2022/05/28 11:52:14;;;;;;;5.38;1.40;;;;;;;;;;5051294;28;20299;-72
2022/05/28 11:54:48;;;;;;;10.25;1.90;;;;;;;;;;5052756;28;20378;-72
2022/05/28 11:57:33;;;;;;;4.40;1.33;;;;;;;;;;5027903;28;20251;-72
2022/05/28 12:00:00;;;;;;;6.25;1.73;;;;;;;;;;5013102;28;20661;-72
2022/05/28 12:02:27;;;;;;;3.47;1.20;;;;;;;;;;5050764;28;20192;-71
2022/05/28 12:04:53;;;;;;;3.97;1.17;;;;;;;;;;5049437;28;20177;-72
2022/05/28 12:07:30;;;;;;;7.45;2.17;;;;;;;;;;5052008;28;20166;-72
2022/05/28 12:09:55;;;;;;;3.55;1.30;;;;;;;;;;5051474;28;20174;-72
2022/05/28 12:12:23;;;;;;;9.57;1.13;;;;;;;;;;5051190;28;20181;-72
2022/05/28 12:15:09;;;;;;;9.00;1.38;;;;;;;;;;5046103;28;20648;-72
2022/05/28 12:17:34;;;;;;;7.28;1.33;;;;;;;;;;5033248;28;20248;-72
2022/05/28 12:20:01;;;;;;;6.43;2.00;;;;;;;;;;5051172;28;20257;-71
2022/05/28 12:22:27;;;;;;;11.32;1.98;;;;;;;;;;5050202;28;20193;-72
2022/05/28 12:24:56;;;;;;;7.57;1.48;;;;;;;;;;5049789;28;20647;-72
2022/05/28 12:27:23;;;;;;;7.32;2.03;;;;;;;;;;5052139;28;20205;-72
2022/05/28 12:29:59;;;;;;;6.78;1.85;;;;;;;;;;5042183;28;20257;-72
2022/05/28 12:32:26;;;;;;;5.35;1.77;;;;;;;;;;5051713;28;20182;-72
2022/05/28 12:34:58;;;;;;;5.25;1.50;;;;;;;;;;5046001;28;20185;-72
2022/05/28 12:37:36;;;;;;;4.65;1.35;;;;;;;;;;5051798;28;20181;-73
2022/05/28 12:40:10;;;;;;;7.10;1.65;;;;;;;;;;5051839;28;20183;-72
2022/05/28 12:42:35;;;;;;;4.05;1.30;;;;;;;;;;5052103;28;20675;-72
2022/05/28 12:45:19;;;;;;;3.70;1.27;;;;;;;;;;5042405;28;20174;-73
2022/05/28 12:47:45;;;;;;;7.05;1.80;;;;;;;;;;5049558;28;20178;-72
2022/05/28 12:50:26;;;;;;;6.53;2.40;;;;;;;;;;5051081;28;20170;-72
2022/05/28 12:52:52;;;;;;;5.93;1.83;;;;;;;;;;5044586;28;20205;-72
2022/05/28 12:55:17;;;;;;;3.63;1.00;;;;;;;;;;5052230;28;20177;-72
2022/05/28 12:57:42;;;;;;;3.28;1.00;;;;;;;;;;5051578;28;20169;-71
2022/05/28 13:00:12;;;;;;;4.33;1.20;;;;;;;;;;5035448;28;20177;-71
2022/05/28 13:02:42;;;;;;;5.65;1.00;;;;;;;;;;5042695;28;21006;-72
2022/05/28 13:05:11;;;;;;;3.53;1.10;;;;;;;;;;5049658;28;20218;-71
2022/05/28 13:07:43;;;;;;;4.47;1.25;;;;;;;;;;5050475;28;20181;-71
2022/05/28 13:10:13;;;;;;;3.25;0.90;;;;;;;;;;5050325;28;20184;-71
2022/05/28 13:12:55;;;;;;;6.15;1.15;;;;;;;;;;5050047;28;20209;-71
2022/05/28 13:15:39;;;;;;;5.22;1.40;;;;;;;;;;5047629;28;20177;-71
2022/05/28 13:18:04;;;;;;;3.72;1.17;;;;;;;;;;5040702;28;20169;-71
2022/05/28 13:20:29;;;;;;;5.93;1.13;;;;;;;;;;5049644;28;20693;-71
2022/05/28 13:23:16;;;;;;;3.22;1.10;;;;;;;;;;5050185;28;20446;-72
2022/05/28 13:25:50;;;;;;;6.25;1.38;;;;;;;;;;5036901;28;20219;-72
2022/05/28 13:28:21;;;;;;;4.93;1.50;;;;;;;;;;5045719;28;20251;-72
2022/05/28 13:30:48;;;;;;;4.35;1.30;;;;;;;;;;5046424;28;20189;-72
2022/05/28 13:33:17;;;;;;;5.93;1.30;;;;;;;;;;5046709;28;20201;-72
2022/05/28 13:35:43;;;;;;;3.85;1.40;;;;;;;;;;5037898;28;20182;-71
2022/05/28 13:38:08;;;;;;;6.13;1.40;;;;;;;;;;5048732;28;20177;-70
2022/05/28 13:40:36;;;;;;;4.68;1.50;;;;;;;;;;5050675;28;20308;-71
2022/05/28 13:43:03;;;;;;;3.55;1.20;;;;;;;;;;5047683;28;20212;-71
2022/05/28 13:45:33;;;;;;;4.50;1.52;;;;;;;;;;5044918;28;20201;-72
2022/05/28 13:48:05;;;;;;;7.35;1.77;;;;;;;;;;5049458;28;20615;-71
2022/05/28 13:50:31;;;;;;;5.32;1.17;;;;;;;;;;5047597;28;20450;-71
2022/05/28 13:52:57;;;;;;;9.45;1.20;;;;;;;;;;5045828;28;20729;-71
2022/05/28 13:55:24;;;;;;;5.97;1.33;;;;;;;;;;5050677;28;20232;-72
2022/05/28 13:57:49;;;;;;;3.47;1.38;;;;;;;;;;5046470;28;20173;-72
2022/05/28 14:00:15;;;;;;;5.30;1.48;;;;;;;;;;5044990;28;20171;-72
2022/05/28 14:02:40;;;;;;;6.38;1.40;;;;;;;;;;5048939;28;20562;-71
2022/05/28 14:05:06;;;;;;;8.50;2.08;;;;;;;;;;5050589;28;20170;-72
2022/05/28 14:07:32;;;;;;;6.38;1.38;;;;;;;;;;5046754;28;20555;-73
2022/05/28 14:09:58;;;;;;;9.80;1.60;;;;;;;;;;5050075;28;20554;-73
2022/05/28 14:12:28;;;;;;;6.78;2.08;;;;;;;;;;5045882;28;20182;-72
2022/05/28 14:14:53;;;;;;;5.32;1.30;;;;;;;;;;5046804;28;20174;-73
2022/05/28 14:17:26;;;;;;;4.40;1.25;;;;;;;;;;5051132;28;20639;-72
2022/05/28 14:19:53;;;;;;;3.80;1.30;;;;;;;;;;5050881;28;20173;-72
2022/05/28 14:22:20;;;;;;;5.18;1.35;;;;;;;;;;5051093;28;20576;-71
2022/05/28 14:24:46;;;;;;;4.95;1.27;;;;;;;;;;5050666;28;20209;-71
2022/05/28 14:27:16;;;;;;;3.75;1.70;;;;;;;;;;5050236;28;20178;-71
2022/05/28 14:29:43;;;;;;;5.25;1.23;;;;;;;;;;5048982;28;20549;-72
2022/05/28 14:32:16;;;;;;;5.72;1.25;;;;;;;;;;5048923;28;20248;-72
2022/05/28 14:34:43;;;;;;;9.18;1.45;;;;;;;;;;5049110;28;20239;-72
2022/05/28 14:37:08;;;;;;;4.47;1.45;;;;;;;;;;5047415;28;20169;-72
2022/05/28 14:39:44;;;;;;;8.18;1.73;;;;;;;;;;5031981;28;20268;-72
2022/05/28 14:42:10;;;;;;;4.63;1.10;;;;;;;;;;5050394;28;20205;-72
2022/05/28 14:44:36;;;;;;;5.95;1.20;;;;;;;;;;5053292;28;20184;-72
2022/05/28 14:47:03;;;;;;;11.57;1.50;;;;;;;;;;5047467;28;20595;-72
2022/05/28 14:49:30;;;;;;;5.72;1.50;;;;;;;;;;5053111;28;20170;-72
2022/05/28 14:51:57;;;;;;;3.78;1.30;;;;;;;;;;5054877;28;20674;-71